createdAt,value
2018-12-05T00:00:35.173Z,6.07
2018-12-05T00:03:03.722Z,5.07
2018-12-05T00:05:31.606Z,5.20
2018-12-05T00:07:59.471Z,5.53
2018-12-05T00:10:27.685Z,4.30
2018-12-05T00:12:55.261Z,4.97
2018-12-05T00:15:23.079Z,4.80
2018-12-05T00:17:50.671Z,4.57
2018-12-05T00:20:18.236Z,4.97
2018-12-05T00:22:45.813Z,4.57
2018-12-05T00:25:13.637Z,4.60
2018-12-05T00:27:45.106Z,4.83
2018-12-05T00:30:12.678Z,4.87
2018-12-05T00:32:41.288Z,5.57
2018-12-05T00:35:10.291Z,6.07
2018-12-05T00:37:37.865Z,4.90
2018-12-05T00:40:05.995Z,4.60
2018-12-05T00:42:33.937Z,4.63
2018-12-05T00:45:01.650Z,4.67
2018-12-05T00:47:29.672Z,5.03
2018-12-05T00:49:57.237Z,5.47
2018-12-05T00:52:26.010Z,6.03
2018-12-05T00:54:53.575Z,8.10
2018-12-05T00:57:25.282Z,5.00
2018-12-05T00:59:52.882Z,5.23
2018-12-05T01:02:20.676Z,5.77
2018-12-05T01:04:48.232Z,5.63
2018-12-05T01:07:20.173Z,5.40
2018-12-05T01:09:47.756Z,5.50
2018-12-05T01:12:15.411Z,5.20
2018-12-05T01:14:43.335Z,5.23
2018-12-05T01:17:10.907Z,4.73
2018-12-05T01:19:38.511Z,4.57
2018-12-05T01:22:06.077Z,5.10
2018-12-05T01:24:33.859Z,5.17
2018-12-05T01:27:02.922Z,4.80
2018-12-05T01:29:31.665Z,4.77
2018-12-05T01:31:59.227Z,5.13
2018-12-05T01:34:26.801Z,4.23
2018-12-05T01:36:54.377Z,5.13
2018-12-05T01:39:21.951Z,4.70
2018-12-05T01:41:50.172Z,7.83
2018-12-05T01:44:18.577Z,4.10
2018-12-05T01:46:46.810Z,5.10
2018-12-05T01:49:14.382Z,5.67
2018-12-05T01:51:41.965Z,4.67
2018-12-05T01:54:09.884Z,4.40
2018-12-05T01:56:37.464Z,4.73
2018-12-05T01:59:05.574Z,5.63
2018-12-05T02:01:33.776Z,5.87
2018-12-05T02:04:02.692Z,4.77
2018-12-05T02:10:58.257Z,6.83
2018-12-05T02:22:21.895Z,6.60
2018-12-05T02:29:33.649Z,5.80
2018-12-05T02:32:01.326Z,6.57
2018-12-05T02:38:57.620Z,6.13
2018-12-05T02:41:25.191Z,7.10
2018-12-05T02:43:52.766Z,6.40
2018-12-05T02:46:20.346Z,6.10
2018-12-05T02:48:47.921Z,5.60
2018-12-05T02:51:15.485Z,5.60
2018-12-05T02:53:43.067Z,5.27
2018-12-05T03:00:38.601Z,5.97
2018-12-05T03:12:03.199Z,4.90
2018-12-05T03:14:30.769Z,5.30
2018-12-05T03:16:58.373Z,6.13
2018-12-05T03:19:26.074Z,5.90
2018-12-05T03:21:53.757Z,5.47
2018-12-05T03:24:21.499Z,5.70
2018-12-05T03:26:49.085Z,5.67
2018-12-05T03:29:16.677Z,5.57
2018-12-05T03:31:44.243Z,5.77
2018-12-05T03:34:11.812Z,6.37
2018-12-05T03:36:39.408Z,6.20
2018-12-05T03:39:08.307Z,5.83
2018-12-05T03:41:37.173Z,6.30
2018-12-05T03:44:04.843Z,5.13
2018-12-05T03:46:33.117Z,5.20
2018-12-05T03:49:00.836Z,5.80
2018-12-05T03:51:28.413Z,5.43
2018-12-05T03:53:57.694Z,5.50
2018-12-05T03:56:25.253Z,5.50
2018-12-05T03:58:53.055Z,5.50
2018-12-05T04:01:20.620Z,5.63
2018-12-05T04:03:48.191Z,5.47
2018-12-05T04:06:16.750Z,5.20
2018-12-05T04:08:45.267Z,5.40
2018-12-05T04:11:12.830Z,5.30
2018-12-05T04:13:40.666Z,4.83
2018-12-05T04:16:08.237Z,5.23
2018-12-05T04:18:35.832Z,4.97
2018-12-05T04:21:03.403Z,4.83
2018-12-05T04:23:31.008Z,5.20
2018-12-05T04:25:58.565Z,5.07
2018-12-05T04:28:26.177Z,4.87
2018-12-05T04:30:53.769Z,4.80
2018-12-05T04:33:21.326Z,4.50
2018-12-05T04:35:48.915Z,4.70
2018-12-05T04:38:16.494Z,5.13
2018-12-05T04:40:44.073Z,5.03
2018-12-05T04:43:11.642Z,5.60
2018-12-05T04:45:40.113Z,5.10
2018-12-05T04:48:08.412Z,5.20
2018-12-05T04:50:36.066Z,5.27
2018-12-05T04:53:03.644Z,5.43
2018-12-05T04:55:32.063Z,5.70
2018-12-05T04:57:59.636Z,4.83
2018-12-05T05:00:27.222Z,5.20
2018-12-05T05:02:55.012Z,5.20
2018-12-05T05:05:23.326Z,4.67
2018-12-05T05:07:52.716Z,6.50
2018-12-05T05:10:21.832Z,4.93
2018-12-05T05:12:49.501Z,5.37
2018-12-05T05:15:17.107Z,5.07
2018-12-05T05:17:46.945Z,5.63
2018-12-05T05:20:14.521Z,6.27
2018-12-05T05:22:42.184Z,8.43
2018-12-05T05:25:09.794Z,11.00
2018-12-05T05:27:37.403Z,13.20
2018-12-05T05:30:05.614Z,12.83
2018-12-05T05:32:33.875Z,13.53
2018-12-05T05:35:01.475Z,12.33
2018-12-05T05:37:29.768Z,9.70
2018-12-05T05:39:57.350Z,11.23
2018-12-05T05:42:26.165Z,13.00
2018-12-05T05:44:53.794Z,8.00
2018-12-05T05:47:25.031Z,6.63
2018-12-05T05:49:52.612Z,4.63
2018-12-05T05:52:20.788Z,4.77
2018-12-05T05:54:48.371Z,6.20
2018-12-05T05:57:15.977Z,8.20
2018-12-05T05:59:43.980Z,8.63
2018-12-05T06:02:11.553Z,8.07
2018-12-05T06:04:39.124Z,9.17
2018-12-05T06:07:08.614Z,8.27
2018-12-05T06:09:36.191Z,8.80
2018-12-05T06:12:03.791Z,8.80
2018-12-05T06:14:31.423Z,9.43
2018-12-05T06:16:59.266Z,8.07
2018-12-05T06:19:26.869Z,8.43
2018-12-05T06:21:54.463Z,8.13
2018-12-05T06:24:22.100Z,7.83
2018-12-05T06:26:49.710Z,7.07
2018-12-05T06:29:17.295Z,7.27
2018-12-05T06:31:45.449Z,6.77
2018-12-05T06:34:14.598Z,7.10
2018-12-05T06:36:42.182Z,5.80
2018-12-05T06:39:09.750Z,6.57
2018-12-05T06:41:37.607Z,6.83
2018-12-05T06:44:05.350Z,6.10
2018-12-05T06:46:32.958Z,7.13
2018-12-05T06:49:00.562Z,6.80
2018-12-05T06:51:28.795Z,7.00
2018-12-05T06:53:56.373Z,6.77
2018-12-05T06:56:24.909Z,6.73
2018-12-05T06:58:52.493Z,6.60
2018-12-05T07:01:20.121Z,6.57
2018-12-05T07:03:48.506Z,7.93
2018-12-05T07:06:16.125Z,7.67
2018-12-05T07:08:44.287Z,9.37
2018-12-05T07:11:16.229Z,8.30
2018-12-05T07:13:45.752Z,8.20
2018-12-05T07:16:16.522Z,7.57
2018-12-05T07:18:46.796Z,8.93
2018-12-05T07:21:14.621Z,8.93
2018-12-05T07:23:42.695Z,9.80
2018-12-05T07:26:10.438Z,9.10
2018-12-05T07:28:38.632Z,9.77
2018-12-05T07:31:06.277Z,10.23
2018-12-05T07:33:34.710Z,7.47
2018-12-05T07:36:02.380Z,9.33
2018-12-05T07:38:37.717Z,8.67
2018-12-05T07:41:09.773Z,9.40
2018-12-05T07:43:38.155Z,9.23
2018-12-05T07:46:06.713Z,7.80
2018-12-05T07:48:36.605Z,7.73
2018-12-05T07:51:04.646Z,6.83
2018-12-05T07:53:32.211Z,7.90
2018-12-05T07:55:59.783Z,8.23
2018-12-05T07:58:27.382Z,8.20
2018-12-05T08:00:55.148Z,8.50
2018-12-05T08:03:22.817Z,7.87
2018-12-05T08:05:50.402Z,8.30
2018-12-05T08:08:18.848Z,7.03
2018-12-05T08:10:47.422Z,6.53
2018-12-05T08:13:15.115Z,7.80
2018-12-05T08:15:42.750Z,7.33
2018-12-05T08:18:10.332Z,8.10
2018-12-05T08:20:37.918Z,8.00
2018-12-05T08:23:05.507Z,7.60
2018-12-05T08:25:36.500Z,8.00
2018-12-05T08:28:04.133Z,8.17
2018-12-05T08:30:34.359Z,8.00
2018-12-05T08:33:02.735Z,10.00
2018-12-05T08:35:31.293Z,9.60
2018-12-05T08:38:00.449Z,9.53
2018-12-05T08:40:28.239Z,9.27
2018-12-05T08:42:56.608Z,8.33
2018-12-05T08:45:24.210Z,9.90
2018-12-05T08:47:51.845Z,8.50
2018-12-05T08:50:19.432Z,8.10
2018-12-05T08:52:47.832Z,7.77
2018-12-05T08:55:15.971Z,7.17
2018-12-05T08:57:43.614Z,7.40
2018-12-05T09:00:11.270Z,6.40
2018-12-05T09:02:39.785Z,6.47
2018-12-05T09:05:07.570Z,5.53
2018-12-05T09:07:35.212Z,5.43
2018-12-05T09:10:02.901Z,5.00
2018-12-05T09:12:30.837Z,7.17
2018-12-05T09:15:01.666Z,9.03
2018-12-05T09:17:29.299Z,14.00
2018-12-05T09:19:57.833Z,12.73
2018-12-05T09:22:25.984Z,7.63
2018-12-05T09:24:54.471Z,6.03
2018-12-05T09:27:22.237Z,5.57
2018-12-05T09:29:49.841Z,4.70
2018-12-05T09:32:17.417Z,5.33
2018-12-05T09:34:45.935Z,5.83
2018-12-05T09:37:13.497Z,4.30
2018-12-05T09:39:41.783Z,4.10
2018-12-05T09:42:10.531Z,4.57
2018-12-05T09:44:39.361Z,5.03
2018-12-05T09:47:07.370Z,3.67
2018-12-05T09:49:35.089Z,4.27
2018-12-05T09:52:02.953Z,3.73
2018-12-05T09:54:30.551Z,3.63
2018-12-05T09:56:58.835Z,3.53
2018-12-05T09:59:27.668Z,4.00
2018-12-05T10:01:56.532Z,4.13
2018-12-05T10:04:24.985Z,3.30
2018-12-05T10:06:52.745Z,3.97
2018-12-05T10:09:22.622Z,4.17
2018-12-05T10:11:50.833Z,4.67
2018-12-05T10:14:18.426Z,5.33
2018-12-05T10:16:47.413Z,4.33
2018-12-05T10:19:15.175Z,4.20
2018-12-05T10:21:44.736Z,3.60
2018-12-05T10:24:12.305Z,2.73
2018-12-05T10:29:14.436Z,2.77
2018-12-05T10:31:46.347Z,2.60
2018-12-05T10:34:14.777Z,2.90
2018-12-05T10:36:43.143Z,2.47
2018-12-05T10:39:11.030Z,2.97
2018-12-05T10:41:52.035Z,2.40
2018-12-05T10:44:19.727Z,3.10
2018-12-05T10:46:47.335Z,3.50
2018-12-05T10:49:15.076Z,2.50
2018-12-05T10:51:42.702Z,3.60
2018-12-05T10:54:11.213Z,3.07
2018-12-05T10:56:39.325Z,3.90
2018-12-05T10:59:07.132Z,3.13
2018-12-05T11:01:41.288Z,3.30
2018-12-05T11:04:14.887Z,2.73
2018-12-05T11:06:49.393Z,2.60
2018-12-05T11:09:22.608Z,3.07
2018-12-05T11:15:00.239Z,3.00
2018-12-05T11:17:46.664Z,2.47
2018-12-05T11:20:20.002Z,2.67
2018-12-05T11:22:53.330Z,3.20
2018-12-05T11:25:21.695Z,3.03
2018-12-05T11:27:49.270Z,2.53
2018-12-05T11:30:17.093Z,2.50
2018-12-05T11:32:46.343Z,2.73
2018-12-05T11:35:15.273Z,3.03
2018-12-05T11:37:46.425Z,2.73
2018-12-05T11:40:16.738Z,2.07
2018-12-05T11:42:44.306Z,2.17
2018-12-05T11:45:13.157Z,2.60
2018-12-05T11:47:42.481Z,3.00
2018-12-05T11:50:10.087Z,2.80
2018-12-05T11:52:37.694Z,2.37
2018-12-05T11:55:06.036Z,2.47
2018-12-05T11:57:36.339Z,2.07
2018-12-05T12:00:06.763Z,1.83
2018-12-05T12:02:35.019Z,3.10
2018-12-05T12:05:05.000Z,1.97
2018-12-05T12:07:33.510Z,3.67
2018-12-05T12:10:02.147Z,2.50
2018-12-05T12:12:35.326Z,2.90
2018-12-05T12:15:03.756Z,2.23
2018-12-05T12:17:33.000Z,2.30
2018-12-05T12:20:01.364Z,2.80
2018-12-05T12:22:28.958Z,2.60
2018-12-05T12:24:56.842Z,2.60
2018-12-05T12:27:25.243Z,2.87
2018-12-05T12:29:53.778Z,2.60
2018-12-05T12:32:21.458Z,2.13
2018-12-05T12:34:51.800Z,2.70
2018-12-05T12:37:19.555Z,2.03
2018-12-05T12:39:47.181Z,2.23
2018-12-05T12:42:15.720Z,2.40
2018-12-05T12:44:44.414Z,2.70
2018-12-05T12:47:12.579Z,2.27
2018-12-05T12:49:40.708Z,2.67
2018-12-05T12:52:08.274Z,2.67
2018-12-05T12:54:36.249Z,2.03
2018-12-05T12:57:07.259Z,2.50
2018-12-05T12:59:34.846Z,2.50
2018-12-05T13:02:02.702Z,2.10
2018-12-05T13:04:30.307Z,2.43
2018-12-05T13:06:58.141Z,2.90
2018-12-05T13:09:26.702Z,2.47
2018-12-05T13:11:54.300Z,2.83
2018-12-05T13:14:22.147Z,2.43
2018-12-05T13:16:50.473Z,2.97
2018-12-05T13:19:18.565Z,2.50
2018-12-05T13:21:47.695Z,2.47
2018-12-05T13:24:15.292Z,2.20
2018-12-05T13:26:46.123Z,2.40
2018-12-05T13:29:15.071Z,1.93
2018-12-05T13:31:43.100Z,1.83
2018-12-05T13:34:11.155Z,2.17
2018-12-05T13:36:41.111Z,2.40
2018-12-05T13:39:16.232Z,1.97
2018-12-05T13:41:44.085Z,2.90
2018-12-05T13:44:13.909Z,3.33
2018-12-05T13:46:41.508Z,2.03
2018-12-05T13:49:10.181Z,1.93
2018-12-05T13:51:39.633Z,1.90
2018-12-05T13:54:07.215Z,2.73
2018-12-05T13:56:36.169Z,2.10
2018-12-05T13:59:04.706Z,2.47
2018-12-05T14:01:32.300Z,2.40
2018-12-05T14:04:01.385Z,2.00
2018-12-05T14:06:29.152Z,1.80
2018-12-05T14:08:57.663Z,2.00
2018-12-05T14:11:25.254Z,2.17
2018-12-05T14:13:55.494Z,2.30
2018-12-05T14:16:24.280Z,2.13
2018-12-05T14:18:52.740Z,2.47
2018-12-05T14:21:20.544Z,2.30
2018-12-05T14:23:49.853Z,2.40
2018-12-05T14:26:17.706Z,2.27
2018-12-05T14:28:45.282Z,2.43
2018-12-05T14:31:15.097Z,3.43
2018-12-05T14:33:45.967Z,2.17
2018-12-05T14:36:13.816Z,2.03
2018-12-05T14:38:43.180Z,2.43
2018-12-05T14:41:10.787Z,2.83
2018-12-05T14:43:41.049Z,2.93
2018-12-05T14:46:09.707Z,2.20
2018-12-05T14:48:37.310Z,2.40
2018-12-05T14:51:08.253Z,2.27
2018-12-05T14:53:35.839Z,2.93
2018-12-05T14:56:07.148Z,3.37
2018-12-05T14:58:36.680Z,2.17
2018-12-05T15:01:05.429Z,2.17
2018-12-05T15:03:33.768Z,3.17
2018-12-05T15:06:01.380Z,2.80
2018-12-05T15:08:33.153Z,3.47
2018-12-05T15:11:03.548Z,2.27
2018-12-05T15:13:31.347Z,2.37
2018-12-05T15:16:00.176Z,2.43
2018-12-05T15:18:28.814Z,2.70
2018-12-05T15:20:56.601Z,2.37
2018-12-05T15:23:24.230Z,2.53
2018-12-05T15:25:51.829Z,2.17
2018-12-05T15:28:19.495Z,2.13
2018-12-05T15:30:47.110Z,2.83
2018-12-05T15:33:14.870Z,2.70
2018-12-05T15:35:43.713Z,2.27
2018-12-05T15:38:11.330Z,2.70
2018-12-05T15:40:39.217Z,2.90
2018-12-05T15:43:07.075Z,2.83
2018-12-05T15:45:37.223Z,3.10
2018-12-05T15:48:04.827Z,3.53
2018-12-05T15:50:35.460Z,2.73
2018-12-05T15:53:03.958Z,2.77
2018-12-05T15:55:32.346Z,2.67
2018-12-05T15:58:00.259Z,2.90
2018-12-05T16:00:28.273Z,2.23
2018-12-05T16:02:56.738Z,2.60
2018-12-05T16:05:24.360Z,3.57
2018-12-05T16:07:52.084Z,2.47
2018-12-05T16:10:20.425Z,2.37
2018-12-05T16:12:48.202Z,3.13
2018-12-05T16:15:18.225Z,2.60
2018-12-05T16:17:49.063Z,3.10
2018-12-05T16:20:17.908Z,2.33
2018-12-05T16:22:46.533Z,2.50
2018-12-05T16:25:16.389Z,2.90
2018-12-05T16:27:52.603Z,4.30
2018-12-05T16:30:20.213Z,3.33
2018-12-05T16:32:58.626Z,3.00
2018-12-05T16:35:30.789Z,2.40
2018-12-05T16:37:58.526Z,2.57
2018-12-05T16:40:26.133Z,2.80
2018-12-05T16:42:56.507Z,2.70
2018-12-05T16:45:25.309Z,3.27
2018-12-05T16:47:53.498Z,3.17
2018-12-05T16:50:21.443Z,2.53
2018-12-05T16:52:49.159Z,3.03
2018-12-05T16:55:17.078Z,2.73
2018-12-05T16:57:44.677Z,2.80
2018-12-05T17:00:12.368Z,2.60
2018-12-05T17:02:51.209Z,2.57
2018-12-05T17:05:23.046Z,3.23
2018-12-05T17:07:50.905Z,3.00
2018-12-05T17:10:20.328Z,2.77
2018-12-05T17:12:48.392Z,3.40
2018-12-05T17:15:19.681Z,2.70
2018-12-05T17:17:51.592Z,3.10
2018-12-05T17:20:19.280Z,3.63
2018-12-05T17:22:48.418Z,3.17
2018-12-05T17:25:17.552Z,3.57
2018-12-05T17:27:46.686Z,3.70
2018-12-05T17:30:14.285Z,4.20
2018-12-05T17:32:46.519Z,3.60
2018-12-05T17:35:14.212Z,2.90
2018-12-05T17:37:51.615Z,4.07
2018-12-05T17:40:19.688Z,3.27
2018-12-05T17:42:51.438Z,3.07
2018-12-05T17:45:19.019Z,3.43
2018-12-05T17:47:47.670Z,3.27
2018-12-05T17:50:15.246Z,3.37
2018-12-05T17:52:53.392Z,3.77
2018-12-05T17:55:24.412Z,3.07
2018-12-05T17:57:52.173Z,3.03
2018-12-05T18:00:30.231Z,3.20
2018-12-05T18:02:58.148Z,3.13
2018-12-05T18:05:27.663Z,3.10
2018-12-05T18:07:55.273Z,3.27
2018-12-05T18:10:26.625Z,3.37
2018-12-05T18:12:54.203Z,3.50
2018-12-05T18:15:21.873Z,3.57
2018-12-05T18:17:51.399Z,3.33
2018-12-05T18:20:20.568Z,3.90
2018-12-05T18:22:55.110Z,3.47
2018-12-05T18:25:26.534Z,4.07
2018-12-05T18:27:54.229Z,3.10
2018-12-05T18:30:22.978Z,3.83
2018-12-05T18:32:50.698Z,4.13
2018-12-05T18:35:18.309Z,3.50
2018-12-05T18:37:47.950Z,4.03
2018-12-05T18:40:16.930Z,4.03
2018-12-05T18:42:45.508Z,5.13
2018-12-05T18:45:15.203Z,4.70
2018-12-05T18:47:49.901Z,3.30
2018-12-05T18:50:17.665Z,3.80
2018-12-05T18:52:46.495Z,3.90
2018-12-05T18:55:16.181Z,4.83
2018-12-05T18:57:46.222Z,5.20
2018-12-05T19:00:14.949Z,4.50
2018-12-05T19:02:44.104Z,6.00
2018-12-05T19:05:12.082Z,3.93
2018-12-05T19:07:40.627Z,3.27
2018-12-05T19:10:08.275Z,4.57
2018-12-05T19:12:35.865Z,4.50
2018-12-05T19:15:04.887Z,4.67
2018-12-05T19:17:32.720Z,4.17
2018-12-05T19:20:00.324Z,3.47
2018-12-05T19:22:29.595Z,4.23
2018-12-05T19:25:00.965Z,4.07
2018-12-05T19:27:42.231Z,4.20
2018-12-05T19:30:11.172Z,4.03
2018-12-05T19:32:38.768Z,4.00
2018-12-05T19:35:09.695Z,4.30
2018-12-05T19:37:37.285Z,3.67
2018-12-05T19:40:06.752Z,4.40
2018-12-05T19:42:35.414Z,4.53
2018-12-05T19:45:04.473Z,4.17
2018-12-05T19:47:33.156Z,3.63
2018-12-05T19:50:00.972Z,4.03
2018-12-05T19:52:40.358Z,3.97
2018-12-05T19:55:09.659Z,3.60
2018-12-05T19:57:38.321Z,4.53
2018-12-05T20:00:10.978Z,4.47
2018-12-05T20:02:39.743Z,4.27
2018-12-05T20:05:07.920Z,4.77
2018-12-05T20:07:36.340Z,4.33
2018-12-05T20:10:05.548Z,5.23
2018-12-05T20:12:34.180Z,5.10
2018-12-05T20:15:01.765Z,5.33
2018-12-05T20:17:29.337Z,4.57
2018-12-05T20:19:57.015Z,5.17
2018-12-05T20:22:25.461Z,4.90
2018-12-05T20:24:53.221Z,5.10
2018-12-05T20:27:23.192Z,4.97
2018-12-05T20:29:51.509Z,4.70
2018-12-05T20:32:19.088Z,5.10
2018-12-05T20:34:48.133Z,4.77
2018-12-05T20:37:15.933Z,5.03
2018-12-05T20:39:43.707Z,4.80
2018-12-05T20:42:11.266Z,5.30
2018-12-05T20:44:40.262Z,5.40
2018-12-05T20:47:08.169Z,4.93
2018-12-05T20:49:35.850Z,5.90
2018-12-05T20:52:04.279Z,5.30
2018-12-05T20:54:33.995Z,6.67
2018-12-05T20:57:02.141Z,5.27
2018-12-05T20:59:30.238Z,5.03
2018-12-05T21:02:01.360Z,5.10
2018-12-05T21:04:30.263Z,4.57
2018-12-05T21:07:05.261Z,4.53
2018-12-05T21:09:33.071Z,5.73
2018-12-05T21:12:01.371Z,5.20
2018-12-05T21:14:29.024Z,4.73
2018-12-05T21:16:56.725Z,4.87
2018-12-05T21:19:25.580Z,4.80
2018-12-05T21:21:53.668Z,5.43
2018-12-05T21:24:23.788Z,5.60
2018-12-05T21:26:51.468Z,5.47
2018-12-05T21:29:19.550Z,5.20
2018-12-05T21:31:47.137Z,6.00
2018-12-05T21:34:16.295Z,5.73
2018-12-05T21:36:44.565Z,5.73
2018-12-05T21:39:14.084Z,6.20
2018-12-05T21:41:41.748Z,5.93
2018-12-05T21:44:10.200Z,6.27
2018-12-05T21:46:40.479Z,5.53
2018-12-05T21:49:10.045Z,5.60
2018-12-05T21:51:42.182Z,5.20
2018-12-05T21:54:10.403Z,6.07
2018-12-05T21:56:38.965Z,5.50
2018-12-05T21:59:06.600Z,4.97
2018-12-05T22:01:37.633Z,4.87
2018-12-05T22:04:06.361Z,5.33
2018-12-05T22:06:35.375Z,5.53
2018-12-05T22:09:06.143Z,5.93
2018-12-05T22:11:34.680Z,5.30
2018-12-05T22:14:03.321Z,4.80
2018-12-05T22:16:32.341Z,5.60
2018-12-05T22:19:01.672Z,5.13
2018-12-05T22:21:30.157Z,5.17
2018-12-05T22:23:57.859Z,5.23
2018-12-05T22:26:25.435Z,5.20
2018-12-05T22:28:58.194Z,5.00
2018-12-05T22:31:26.101Z,5.87
2018-12-05T22:33:54.740Z,4.70
2018-12-05T22:36:23.205Z,4.87
2018-12-05T22:38:51.154Z,5.70
2018-12-05T22:41:18.730Z,5.00
2018-12-05T22:43:46.317Z,5.07
2018-12-05T22:46:14.094Z,5.70
2018-12-05T22:48:41.659Z,5.47
2018-12-05T22:51:11.017Z,4.90
2018-12-05T22:53:38.597Z,5.70
2018-12-05T22:56:06.187Z,5.60
2018-12-05T22:58:33.996Z,5.80
2018-12-05T23:01:01.664Z,4.83
2018-12-05T23:03:30.315Z,5.03
2018-12-05T23:05:59.461Z,5.80
2018-12-05T23:08:28.367Z,5.67
2018-12-05T23:10:56.692Z,6.07
2018-12-05T23:13:24.256Z,5.10
2018-12-05T23:15:52.014Z,6.37
2018-12-05T23:18:19.805Z,6.10
2018-12-05T23:20:48.701Z,5.43
2018-12-05T23:23:16.439Z,5.67
2018-12-05T23:25:46.977Z,6.10
2018-12-05T23:28:14.542Z,5.53
2018-12-05T23:30:42.119Z,5.83
2018-12-05T23:33:13.095Z,5.80
2018-12-05T23:35:40.948Z,5.93
2018-12-05T23:38:08.515Z,6.47
2018-12-05T23:40:36.100Z,6.13
2018-12-05T23:43:03.699Z,5.80
2018-12-05T23:45:31.279Z,5.97
2018-12-05T23:47:59.170Z,5.97
2018-12-05T23:50:27.068Z,5.60
2018-12-05T23:52:55.693Z,5.47
2018-12-05T23:55:23.248Z,5.40
2018-12-05T23:57:50.885Z,5.20
